sensor_id;sensor_type;location;lat;lon;timestamp;pressure;altitude;pressure_sealevel;temperature;humidity
69405;BME280;57084;52.046;5.632;2023-01-05T00:00:00;101480;;;11.9;73.5
69405;BME280;57084;52.046;5.632;2023-01-05T00:01:00;101490;;;11.9;73.4
69405;BME280;57084;52.046;5.632;2023-01-05T00:02:00;101490;;;11.9;73.4
69405;BME280;57084;52.046;5.632;2023-01-05T00:03:00;101480;;;11.9;73.5
69405;BME280;57084;52.046;5.632;2023-01-05T00:04:00;101480;;;11.9;73.5
69405;BME280;57084;52.046;5.632;2023-01-05T00:05:00;101470;;;11.9;73.4
69405;BME280;57084;52.046;5.632;2023-01-05T00:06:00;101470;;;11.9;73.4
69405;BME280;57084;52.046;5.632;2023-01-05T00:07:00;101480;;;11.9;73.4
69405;BME280;57084;52.046;5.632;2023-01-05T00:08:00;101480;;;11.9;73.4
69405;BME280;57084;52.046;5.632;2023-01-05T00:09:00;101480;;;11.9;73.5
69405;BME280;57084;52.046;5.632;2023-01-05T00:10:00;101480;;;11.9;73.5
69405;BME280;57084;52.046;5.632;2023-01-05T00:11:02;101470;;;11.9;73.4
69405;BME280;57084;52.046;5.632;2023-01-05T00:12:00;101470;;;11.9;73.4
69405;BME280;57084;52.046;5.632;2023-01-05T00:13:00;101480;;;11.9;73.4
69405;BME280;57084;52.046;5.632;2023-01-05T00:14:00;101480;;;11.9;73.4
69405;BME280;57084;52.046;5.632;2023-01-05T00:15:00;101470;;;11.9;73.3
69405;BME280;57084;52.046;5.632;2023-01-05T00:16:00;101470;;;11.9;73.3
69405;BME280;57084;52.046;5.632;2023-01-05T00:17:00;101480;;;11.9;73.3
69405;BME280;57084;52.046;5.632;2023-01-05T00:18:00;101480;;;11.9;73.3
69405;BME280;57084;52.046;5.632;2023-01-05T00:19:00;101480;;;11.9;73.4
69405;BME280;57084;52.046;5.632;2023-01-05T00:20:00;101480;;;11.9;73.4
69405;BME280;57084;52.046;5.632;2023-01-05T00:21:00;101480;;;11.9;73.3
69405;BME280;57084;52.046;5.632;2023-01-05T00:22:00;101480;;;11.9;73.3
69405;BME280;57084;52.046;5.632;2023-01-05T00:23:00;101490;;;11.9;73.3
69405;BME280;57084;52.046;5.632;2023-01-05T00:24:00;101490;;;11.9;73.3
69405;BME280;57084;52.046;5.632;2023-01-05T00:25:01;101490;;;11.9;73.3
69405;BME280;57084;52.046;5.632;2023-01-05T00:26:00;101490;;;11.9;73.3
69405;BME280;57084;52.046;5.632;2023-01-05T00:27:00;101490;;;11.9;73.2
69405;BME280;57084;52.046;5.632;2023-01-05T00:28:00;101490;;;11.9;73.2
69405;BME280;57084;52.046;5.632;2023-01-05T00:29:00;101490;;;11.9;73.2
69405;BME280;57084;52.046;5.632;2023-01-05T00:30:00;101490;;;11.9;73.2
69405;BME280;57084;52.046;5.632;2023-01-05T00:31:00;101480;;;11.9;73.1
69405;BME280;57084;52.046;5.632;2023-01-05T00:32:00;101480;;;11.9;73.1
69405;BME280;57084;52.046;5.632;2023-01-05T00:33:00;101490;;;11.9;73.1
69405;BME280;57084;52.046;5.632;2023-01-05T00:34:00;101490;;;11.9;73.1
69405;BME280;57084;52.046;5.632;2023-01-05T00:35:00;101490;;;11.9;73.1
69405;BME280;57084;52.046;5.632;2023-01-05T00:36:00;101490;;;11.9;73.1
69405;BME280;57084;52.046;5.632;2023-01-05T00:37:00;101490;;;11.9;73.1
69405;BME280;57084;52.046;5.632;2023-01-05T00:38:00;101490;;;11.9;73.1
69405;BME280;57084;52.046;5.632;2023-01-05T00:39:00;101490;;;11.8;73.1
69405;BME280;57084;52.046;5.632;2023-01-05T00:40:00;101490;;;11.8;73.1
69405;BME280;57084;52.046;5.632;2023-01-05T00:41:00;101490;;;11.8;73.1
69405;BME280;57084;52.046;5.632;2023-01-05T00:42:00;101490;;;11.8;73.1
69405;BME280;57084;52.046;5.632;2023-01-05T00:43:00;101490;;;11.8;73.1
69405;BME280;57084;52.046;5.632;2023-01-05T00:44:00;101490;;;11.8;73.1
69405;BME280;57084;52.046;5.632;2023-01-05T00:45:00;101480;;;11.8;73.1
69405;BME280;57084;52.046;5.632;2023-01-05T00:46:00;101480;;;11.8;73.1
69405;BME280;57084;52.046;5.632;2023-01-05T00:47:00;101470;;;11.8;73.1
69405;BME280;57084;52.046;5.632;2023-01-05T00:48:00;101470;;;11.8;73.1
69405;BME280;57084;52.046;5.632;2023-01-05T00:49:00;101490;;;11.8;73.1
69405;BME280;57084;52.046;5.632;2023-01-05T00:50:00;101490;;;11.8;73.1
69405;BME280;57084;52.046;5.632;2023-01-05T00:51:00;101490;;;11.8;73.0
69405;BME280;57084;52.046;5.632;2023-01-05T00:52:00;101490;;;11.8;73.0
69405;BME280;57084;52.046;5.632;2023-01-05T00:53:00;101490;;;11.8;73.1
69405;BME280;57084;52.046;5.632;2023-01-05T00:54:00;101490;;;11.8;73.1
69405;BME280;57084;52.046;5.632;2023-01-05T00:55:00;101490;;;11.8;73.0
69405;BME280;57084;52.046;5.632;2023-01-05T00:56:00;101490;;;11.8;73.0
69405;BME280;57084;52.046;5.632;2023-01-05T00:57:00;101490;;;11.8;73.0
69405;BME280;57084;52.046;5.632;2023-01-05T00:58:00;101490;;;11.8;73.0
69405;BME280;57084;52.046;5.632;2023-01-05T00:59:00;101490;;;11.8;73.0
69405;BME280;57084;52.046;5.632;2023-01-05T01:00:00;101490;;;11.8;73.0
69405;BME280;57084;52.046;5.632;2023-01-05T01:01:00;101500;;;11.8;72.9
69405;BME280;57084;52.046;5.632;2023-01-05T01:02:00;101500;;;11.8;72.9
69405;BME280;57084;52.046;5.632;2023-01-05T01:03:00;101500;;;11.8;73.0
69405;BME280;57084;52.046;5.632;2023-01-05T01:04:00;101500;;;11.8;73.0
69405;BME280;57084;52.046;5.632;2023-01-05T01:05:00;101500;;;11.7;73.0
69405;BME280;57084;52.046;5.632;2023-01-05T01:06:00;101500;;;11.7;73.0
69405;BME280;57084;52.046;5.632;2023-01-05T01:07:00;101510;;;11.7;73.0
69405;BME280;57084;52.046;5.632;2023-01-05T01:08:00;101510;;;11.7;73.0
69405;BME280;57084;52.046;5.632;2023-01-05T01:09:00;101520;;;11.7;73.0
69405;BME280;57084;52.046;5.632;2023-01-05T01:10:00;101520;;;11.7;73.0
69405;BME280;57084;52.046;5.632;2023-01-05T01:11:02;101510;;;11.7;72.9
69405;BME280;57084;52.046;5.632;2023-01-05T01:12:00;101510;;;11.7;72.9
69405;BME280;57084;52.046;5.632;2023-01-05T01:13:00;101510;;;11.7;73.0
69405;BME280;57084;52.046;5.632;2023-01-05T01:14:00;101510;;;11.7;73.0
69405;BME280;57084;52.046;5.632;2023-01-05T01:15:00;101510;;;11.7;73.0
69405;BME280;57084;52.046;5.632;2023-01-05T01:16:04;101510;;;11.7;73.0
69405;BME280;57084;52.046;5.632;2023-01-05T01:17:00;101510;;;11.7;72.9
69405;BME280;57084;52.046;5.632;2023-01-05T01:18:00;101510;;;11.7;72.9
69405;BME280;57084;52.046;5.632;2023-01-05T01:19:00;101510;;;11.7;73.0
69405;BME280;57084;52.046;5.632;2023-01-05T01:20:00;101510;;;11.7;73.0
69405;BME280;57084;52.046;5.632;2023-01-05T01:21:00;101510;;;11.7;72.9
69405;BME280;57084;52.046;5.632;2023-01-05T01:22:00;101510;;;11.7;72.9
69405;BME280;57084;52.046;5.632;2023-01-05T01:23:00;101510;;;11.7;72.9
69405;BME280;57084;52.046;5.632;2023-01-05T01:24:00;101510;;;11.7;72.9
69405;BME280;57084;52.046;5.632;2023-01-05T01:25:00;101510;;;11.7;72.9
69405;BME280;57084;52.046;5.632;2023-01-05T01:26:02;101510;;;11.7;72.9
69405;BME280;57084;52.046;5.632;2023-01-05T01:27:00;101510;;;11.7;72.9
69405;BME280;57084;52.046;5.632;2023-01-05T01:28:00;101510;;;11.7;72.9
69405;BME280;57084;52.046;5.632;2023-01-05T01:29:00;101520;;;11.7;72.9
69405;BME280;57084;52.046;5.632;2023-01-05T01:30:00;101520;;;11.7;72.9
69405;BME280;57084;52.046;5.632;2023-01-05T01:31:00;101520;;;11.7;72.8
69405;BME280;57084;52.046;5.632;2023-01-05T01:32:00;101520;;;11.7;72.8
69405;BME280;57084;52.046;5.632;2023-01-05T01:33:00;101530;;;11.7;72.9
69405;BME280;57084;52.046;5.632;2023-01-05T01:34:00;101530;;;11.7;72.9
69405;BME280;57084;52.046;5.632;2023-01-05T01:35:00;101530;;;11.7;72.9
69405;BME280;57084;52.046;5.632;2023-01-05T01:36:02;101530;;;11.7;72.9
69405;BME280;57084;52.046;5.632;2023-01-05T01:37:00;101540;;;11.7;72.9
69405;BME280;57084;52.046;5.632;2023-01-05T01:38:00;101540;;;11.7;72.9
69405;BME280;57084;52.046;5.632;2023-01-05T01:39:00;101540;;;11.7;73.0
69405;BME280;57084;52.046;5.632;2023-01-05T01:40:00;101540;;;11.7;73.0
69405;BME280;57084;52.046;5.632;2023-01-05T01:41:00;101540;;;11.7;72.9
69405;BME280;57084;52.046;5.632;2023-01-05T01:42:00;101540;;;11.7;72.9
69405;BME280;57084;52.046;5.632;2023-01-05T01:43:00;101540;;;11.7;73.0
69405;BME280;57084;52.046;5.632;2023-01-05T01:44:00;101540;;;11.7;73.0
69405;BME280;57084;52.046;5.632;2023-01-05T01:45:00;101550;;;11.7;73.0
69405;BME280;57084;52.046;5.632;2023-01-05T01:46:00;101550;;;11.7;73.0
69405;BME280;57084;52.046;5.632;2023-01-05T01:47:00;101550;;;11.7;72.9
69405;BME280;57084;52.046;5.632;2023-01-05T01:48:00;101550;;;11.7;72.9
69405;BME280;57084;52.046;5.632;2023-01-05T01:49:01;101560;;;11.7;72.9
69405;BME280;57084;52.046;5.632;2023-01-05T01:50:01;101560;;;11.7;72.9
69405;BME280;57084;52.046;5.632;2023-01-05T01:51:00;101560;;;11.7;72.9
69405;BME280;57084;52.046;5.632;2023-01-05T01:52:00;101560;;;11.7;72.9
69405;BME280;57084;52.046;5.632;2023-01-05T01:53:00;101550;;;11.6;73.0
69405;BME280;57084;52.046;5.632;2023-01-05T01:54:01;101550;;;11.6;73.0
69405;BME280;57084;52.046;5.632;2023-01-05T01:55:00;101550;;;11.6;73.0
69405;BME280;57084;52.046;5.632;2023-01-05T01:56:00;101550;;;11.6;73.0
69405;BME280;57084;52.046;5.632;2023-01-05T01:57:00;101550;;;11.6;73.0
69405;BME280;57084;52.046;5.632;2023-01-05T01:58:00;101550;;;11.6;73.0
69405;BME280;57084;52.046;5.632;2023-01-05T01:59:00;101560;;;11.6;73.0
69405;BME280;57084;52.046;5.632;2023-01-05T02:00:00;101560;;;11.6;73.0
69405;BME280;57084;52.046;5.632;2023-01-05T02:01:00;101560;;;11.6;72.9
69405;BME280;57084;52.046;5.632;2023-01-05T02:02:00;101560;;;11.6;72.9
69405;BME280;57084;52.046;5.632;2023-01-05T02:03:00;101560;;;11.6;72.9
69405;BME280;57084;52.046;5.632;2023-01-05T02:04:00;101560;;;11.6;72.9
69405;BME280;57084;52.046;5.632;2023-01-05T02:05:01;101560;;;11.6;72.9
69405;BME280;57084;52.046;5.632;2023-01-05T02:06:00;101560;;;11.6;72.9
69405;BME280;57084;52.046;5.632;2023-01-05T02:07:00;101560;;;11.6;72.9
69405;BME280;57084;52.046;5.632;2023-01-05T02:08:00;101560;;;11.6;72.9
69405;BME280;57084;52.046;5.632;2023-01-05T02:09:00;101560;;;11.7;72.9
69405;BME280;57084;52.046;5.632;2023-01-05T02:10:00;101560;;;11.7;72.9
69405;BME280;57084;52.046;5.632;2023-01-05T02:11:04;101570;;;11.7;72.8
69405;BME280;57084;52.046;5.632;2023-01-05T02:12:03;101570;;;11.7;72.8
69405;BME280;57084;52.046;5.632;2023-01-05T02:13:02;101570;;;11.6;72.9
69405;BME280;57084;52.046;5.632;2023-01-05T02:14:08;101570;;;11.6;72.9
69405;BME280;57084;52.046;5.632;2023-01-05T02:15:04;101560;;;11.6;72.9
69405;BME280;57084;52.046;5.632;2023-01-05T02:16:01;101560;;;11.6;72.9
69405;BME280;57084;52.046;5.632;2023-01-05T02:17:03;101570;;;11.6;72.9
69405;BME280;57084;52.046;5.632;2023-01-05T02:18:03;101570;;;11.6;72.9
69405;BME280;57084;52.046;5.632;2023-01-05T02:19:05;101560;;;11.6;72.9
69405;BME280;57084;52.046;5.632;2023-01-05T02:20:22;101560;;;11.6;72.9
69405;BME280;57084;52.046;5.632;2023-01-05T02:21:03;101560;;;11.6;72.9
69405;BME280;57084;52.046;5.632;2023-01-05T02:22:02;101560;;;11.6;72.9
69405;BME280;57084;52.046;5.632;2023-01-05T02:23:10;101570;;;11.6;73.0
69405;BME280;57084;52.046;5.632;2023-01-05T02:24:07;101570;;;11.6;73.0
69405;BME280;57084;52.046;5.632;2023-01-05T02:25:05;101560;;;11.6;73.0
69405;BME280;57084;52.046;5.632;2023-01-05T02:26:10;101560;;;11.6;73.0
69405;BME280;57084;52.046;5.632;2023-01-05T02:27:05;101560;;;11.6;73.0
69405;BME280;57084;52.046;5.632;2023-01-05T02:28:02;101560;;;11.6;73.0
69405;BME280;57084;52.046;5.632;2023-01-05T02:30:03;101550;;;11.6;73.0
69405;BME280;57084;52.046;5.632;2023-01-05T02:31:05;101570;;;11.6;73.0
69405;BME280;57084;52.046;5.632;2023-01-05T02:32:00;101570;;;11.6;73.0
69405;BME280;57084;52.046;5.632;2023-01-05T02:33:02;101570;;;11.6;73.0
69405;BME280;57084;52.046;5.632;2023-01-05T02:34:04;101570;;;11.6;73.0
69405;BME280;57084;52.046;5.632;2023-01-05T02:35:02;101560;;;11.6;73.0
69405;BME280;57084;52.046;5.632;2023-01-05T02:36:02;101560;;;11.6;73.0
69405;BME280;57084;52.046;5.632;2023-01-05T02:37:01;101570;;;11.6;73.0
69405;BME280;57084;52.046;5.632;2023-01-05T02:38:01;101570;;;11.6;73.0
69405;BME280;57084;52.046;5.632;2023-01-05T02:39:01;101570;;;11.6;73.1
69405;BME280;57084;52.046;5.632;2023-01-05T02:40:02;101570;;;11.6;73.1
69405;BME280;57084;52.046;5.632;2023-01-05T02:41:02;101560;;;11.6;73.1
69405;BME280;57084;52.046;5.632;2023-01-05T02:42:01;101560;;;11.6;73.1
69405;BME280;57084;52.046;5.632;2023-01-05T02:43:00;101570;;;11.6;73.1
69405;BME280;57084;52.046;5.632;2023-01-05T02:44:00;101570;;;11.6;73.1
69405;BME280;57084;52.046;5.632;2023-01-05T02:45:00;101570;;;11.6;73.1
69405;BME280;57084;52.046;5.632;2023-01-05T02:46:00;101570;;;11.6;73.1
69405;BME280;57084;52.046;5.632;2023-01-05T02:47:01;101570;;;11.6;73.1
69405;BME280;57084;52.046;5.632;2023-01-05T02:48:00;101570;;;11.6;73.1
69405;BME280;57084;52.046;5.632;2023-01-05T02:49:00;101580;;;11.6;73.1
69405;BME280;57084;52.046;5.632;2023-01-05T02:50:01;101580;;;11.6;73.1
69405;BME280;57084;52.046;5.632;2023-01-05T02:51:00;101580;;;11.6;73.1
69405;BME280;57084;52.046;5.632;2023-01-05T02:52:00;101580;;;11.6;73.1
69405;BME280;57084;52.046;5.632;2023-01-05T02:53:02;101580;;;11.6;73.1
69405;BME280;57084;52.046;5.632;2023-01-05T02:54:00;101580;;;11.6;73.1
69405;BME280;57084;52.046;5.632;2023-01-05T02:55:01;101570;;;11.6;73.1
69405;BME280;57084;52.046;5.632;2023-01-05T02:56:01;101570;;;11.6;73.1
69405;BME280;57084;52.046;5.632;2023-01-05T02:57:02;101580;;;11.6;73.2
69405;BME280;57084;52.046;5.632;2023-01-05T02:58:01;101580;;;11.6;73.2
69405;BME280;57084;52.046;5.632;2023-01-05T02:59:01;101580;;;11.6;73.3
69405;BME280;57084;52.046;5.632;2023-01-05T03:00:00;101580;;;11.6;73.3
69405;BME280;57084;52.046;5.632;2023-01-05T03:01:01;101580;;;11.6;73.3
69405;BME280;57084;52.046;5.632;2023-01-05T03:02:00;101580;;;11.6;73.3
69405;BME280;57084;52.046;5.632;2023-01-05T03:03:00;101580;;;11.6;73.3
69405;BME280;57084;52.046;5.632;2023-01-05T03:04:00;101580;;;11.6;73.3
69405;BME280;57084;52.046;5.632;2023-01-05T03:05:00;101580;;;11.6;73.3
69405;BME280;57084;52.046;5.632;2023-01-05T03:06:01;101580;;;11.6;73.3
69405;BME280;57084;52.046;5.632;2023-01-05T03:07:01;101580;;;11.6;73.2
69405;BME280;57084;52.046;5.632;2023-01-05T03:08:00;101580;;;11.6;73.2
69405;BME280;57084;52.046;5.632;2023-01-05T03:09:00;101590;;;11.6;73.3
69405;BME280;57084;52.046;5.632;2023-01-05T03:10:00;101590;;;11.6;73.3
69405;BME280;57084;52.046;5.632;2023-01-05T03:11:01;101580;;;11.6;73.3
69405;BME280;57084;52.046;5.632;2023-01-05T03:12:08;101580;;;11.6;73.3
69405;BME280;57084;52.046;5.632;2023-01-05T03:13:01;101580;;;11.6;73.3
69405;BME280;57084;52.046;5.632;2023-01-05T03:14:02;101580;;;11.6;73.3
69405;BME280;57084;52.046;5.632;2023-01-05T03:15:00;101580;;;11.6;73.3
69405;BME280;57084;52.046;5.632;2023-01-05T03:16:00;101580;;;11.6;73.3
69405;BME280;57084;52.046;5.632;2023-01-05T03:17:00;101580;;;11.6;73.2
69405;BME280;57084;52.046;5.632;2023-01-05T03:18:03;101580;;;11.6;73.2
69405;BME280;57084;52.046;5.632;2023-01-05T03:19:01;101580;;;11.6;73.3
69405;BME280;57084;52.046;5.632;2023-01-05T03:20:00;101580;;;11.6;73.3
69405;BME280;57084;52.046;5.632;2023-01-05T03:21:00;101580;;;11.6;73.3
69405;BME280;57084;52.046;5.632;2023-01-05T03:22:01;101580;;;11.6;73.3
69405;BME280;57084;52.046;5.632;2023-01-05T03:23:01;101590;;;11.6;73.3
69405;BME280;57084;52.046;5.632;2023-01-05T03:24:00;101590;;;11.6;73.3
69405;BME280;57084;52.046;5.632;2023-01-05T03:25:00;101580;;;11.6;73.3
69405;BME280;57084;52.046;5.632;2023-01-05T03:26:00;101580;;;11.6;73.3
69405;BME280;57084;52.046;5.632;2023-01-05T03:27:00;101580;;;11.6;73.3
69405;BME280;57084;52.046;5.632;2023-01-05T03:28:00;101580;;;11.6;73.3
69405;BME280;57084;52.046;5.632;2023-01-05T03:29:00;101580;;;11.6;73.4
69405;BME280;57084;52.046;5.632;2023-01-05T03:30:00;101580;;;11.6;73.4
69405;BME280;57084;52.046;5.632;2023-01-05T03:31:01;101580;;;11.6;73.4
69405;BME280;57084;52.046;5.632;2023-01-05T03:32:01;101580;;;11.6;73.4
69405;BME280;57084;52.046;5.632;2023-01-05T03:33:01;101580;;;11.6;73.3
69405;BME280;57084;52.046;5.632;2023-01-05T03:34:01;101580;;;11.6;73.3
69405;BME280;57084;52.046;5.632;2023-01-05T03:35:01;101590;;;11.6;73.3
69405;BME280;57084;52.046;5.632;2023-01-05T03:36:00;101590;;;11.6;73.3
69405;BME280;57084;52.046;5.632;2023-01-05T03:37:01;101580;;;11.6;73.3
69405;BME280;57084;52.046;5.632;2023-01-05T03:38:03;101580;;;11.6;73.3
69405;BME280;57084;52.046;5.632;2023-01-05T03:39:00;101590;;;11.6;73.4
69405;BME280;57084;52.046;5.632;2023-01-05T03:40:00;101590;;;11.6;73.4
69405;BME280;57084;52.046;5.632;2023-01-05T03:41:01;101590;;;11.6;73.4
69405;BME280;57084;52.046;5.632;2023-01-05T03:42:00;101590;;;11.6;73.4
69405;BME280;57084;52.046;5.632;2023-01-05T03:43:00;101590;;;11.6;73.4
69405;BME280;57084;52.046;5.632;2023-01-05T03:44:00;101590;;;11.6;73.4
69405;BME280;57084;52.046;5.632;2023-01-05T03:45:00;101600;;;11.6;73.4
69405;BME280;57084;52.046;5.632;2023-01-05T03:46:00;101600;;;11.6;73.4
69405;BME280;57084;52.046;5.632;2023-01-05T03:47:00;101590;;;11.6;73.3
69405;BME280;57084;52.046;5.632;2023-01-05T03:48:00;101590;;;11.6;73.3
69405;BME280;57084;52.046;5.632;2023-01-05T03:49:00;101590;;;11.6;73.4
69405;BME280;57084;52.046;5.632;2023-01-05T03:50:00;101590;;;11.6;73.4
69405;BME280;57084;52.046;5.632;2023-01-05T03:51:00;101590;;;11.6;73.4
69405;BME280;57084;52.046;5.632;2023-01-05T03:52:00;101590;;;11.6;73.4
69405;BME280;57084;52.046;5.632;2023-01-05T03:53:00;101590;;;11.6;73.4
69405;BME280;57084;52.046;5.632;2023-01-05T03:54:00;101590;;;11.6;73.4
69405;BME280;57084;52.046;5.632;2023-01-05T03:55:00;101590;;;11.6;73.4
69405;BME280;57084;52.046;5.632;2023-01-05T03:56:00;101590;;;11.6;73.4
69405;BME280;57084;52.046;5.632;2023-01-05T03:57:00;101590;;;11.6;73.3
69405;BME280;57084;52.046;5.632;2023-01-05T03:58:00;101590;;;11.6;73.3
69405;BME280;57084;52.046;5.632;2023-01-05T03:59:00;101590;;;11.6;73.4
69405;BME280;57084;52.046;5.632;2023-01-05T04:00:00;101590;;;11.6;73.4
69405;BME280;57084;52.046;5.632;2023-01-05T04:01:00;101590;;;11.6;73.3
69405;BME280;57084;52.046;5.632;2023-01-05T04:02:00;101590;;;11.6;73.3
69405;BME280;57084;52.046;5.632;2023-01-05T04:03:00;101590;;;11.6;73.4
69405;BME280;57084;52.046;5.632;2023-01-05T04:04:00;101590;;;11.6;73.4
69405;BME280;57084;52.046;5.632;2023-01-05T04:05:00;101600;;;11.6;73.4
69405;BME280;57084;52.046;5.632;2023-01-05T04:06:00;101600;;;11.6;73.4
69405;BME280;57084;52.046;5.632;2023-01-05T04:07:00;101600;;;11.6;73.3
69405;BME280;57084;52.046;5.632;2023-01-05T04:08:00;101600;;;11.6;73.3
69405;BME280;57084;52.046;5.632;2023-01-05T04:09:00;101600;;;11.6;73.4
69405;BME280;57084;52.046;5.632;2023-01-05T04:10:00;101600;;;11.6;73.4
69405;BME280;57084;52.046;5.632;2023-01-05T04:11:08;101590;;;11.6;73.3
69405;BME280;57084;52.046;5.632;2023-01-05T04:12:00;101590;;;11.6;73.3
69405;BME280;57084;52.046;5.632;2023-01-05T04:13:00;101600;;;11.6;73.3
69405;BME280;57084;52.046;5.632;2023-01-05T04:14:00;101600;;;11.6;73.3
69405;BME280;57084;52.046;5.632;2023-01-05T04:15:00;101590;;;11.6;73.3
69405;BME280;57084;52.046;5.632;2023-01-05T04:16:00;101590;;;11.6;73.3
69405;BME280;57084;52.046;5.632;2023-01-05T04:17:00;101590;;;11.6;73.3
69405;BME280;57084;52.046;5.632;2023-01-05T04:18:00;101590;;;11.6;73.3
69405;BME280;57084;52.046;5.632;2023-01-05T04:19:00;101590;;;11.6;73.4
69405;BME280;57084;52.046;5.632;2023-01-05T04:20:00;101590;;;11.6;73.4
69405;BME280;57084;52.046;5.632;2023-01-05T04:21:00;101590;;;11.6;73.4
69405;BME280;57084;52.046;5.632;2023-01-05T04:22:00;101590;;;11.6;73.4
69405;BME280;57084;52.046;5.632;2023-01-05T04:23:00;101590;;;11.6;73.4
69405;BME280;57084;52.046;5.632;2023-01-05T04:24:00;101590;;;11.6;73.4
69405;BME280;57084;52.046;5.632;2023-01-05T04:25:00;101590;;;11.6;73.4
69405;BME280;57084;52.046;5.632;2023-01-05T04:26:00;101590;;;11.6;73.4
69405;BME280;57084;52.046;5.632;2023-01-05T04:27:00;101600;;;11.6;73.3
69405;BME280;57084;52.046;5.632;2023-01-05T04:28:00;101600;;;11.6;73.3
69405;BME280;57084;52.046;5.632;2023-01-05T04:29:00;101590;;;11.6;73.4
69405;BME280;57084;52.046;5.632;2023-01-05T04:30:00;101590;;;11.6;73.4
69405;BME280;57084;52.046;5.632;2023-01-05T04:31:00;101600;;;11.6;73.3
69405;BME280;57084;52.046;5.632;2023-01-05T04:32:00;101600;;;11.6;73.3
69405;BME280;57084;52.046;5.632;2023-01-05T04:33:00;101590;;;11.6;73.3
69405;BME280;57084;52.046;5.632;2023-01-05T04:34:00;101590;;;11.6;73.3
69405;BME280;57084;52.046;5.632;2023-01-05T04:35:00;101590;;;11.6;73.4
69405;BME280;57084;52.046;5.632;2023-01-05T04:36:00;101590;;;11.6;73.4
69405;BME280;57084;52.046;5.632;2023-01-05T04:37:00;101600;;;11.6;73.4
69405;BME280;57084;52.046;5.632;2023-01-05T04:38:00;101600;;;11.6;73.4
69405;BME280;57084;52.046;5.632;2023-01-05T04:39:00;101600;;;11.6;73.4
69405;BME280;57084;52.046;5.632;2023-01-05T04:40:00;101600;;;11.6;73.4
69405;BME280;57084;52.046;5.632;2023-01-05T04:41:00;101600;;;11.6;73.3
69405;BME280;57084;52.046;5.632;2023-01-05T04:42:00;101600;;;11.6;73.3
69405;BME280;57084;52.046;5.632;2023-01-05T04:43:00;101600;;;11.6;73.3
69405;BME280;57084;52.046;5.632;2023-01-05T04:44:00;101600;;;11.6;73.3
69405;BME280;57084;52.046;5.632;2023-01-05T04:45:00;101600;;;11.6;73.3
69405;BME280;57084;52.046;5.632;2023-01-05T04:46:00;101600;;;11.6;73.3
69405;BME280;57084;52.046;5.632;2023-01-05T04:47:00;101600;;;11.6;73.3
69405;BME280;57084;52.046;5.632;2023-01-05T04:48:00;101600;;;11.6;73.3
69405;BME280;57084;52.046;5.632;2023-01-05T04:49:00;101610;;;11.6;73.3
69405;BME280;57084;52.046;5.632;2023-01-05T04:50:00;101610;;;11.6;73.3
69405;BME280;57084;52.046;5.632;2023-01-05T04:51:00;101600;;;11.6;73.3
69405;BME280;57084;52.046;5.632;2023-01-05T04:52:00;101600;;;11.6;73.3
69405;BME280;57084;52.046;5.632;2023-01-05T04:53:00;101610;;;11.6;73.3
69405;BME280;57084;52.046;5.632;2023-01-05T04:54:00;101610;;;11.6;73.3
69405;BME280;57084;52.046;5.632;2023-01-05T04:55:00;101610;;;11.6;73.3
69405;BME280;57084;52.046;5.632;2023-01-05T04:56:00;101610;;;11.6;73.3
69405;BME280;57084;52.046;5.632;2023-01-05T04:57:00;101610;;;11.6;73.3
69405;BME280;57084;52.046;5.632;2023-01-05T04:58:00;101610;;;11.6;73.3
69405;BME280;57084;52.046;5.632;2023-01-05T04:59:00;101610;;;11.6;73.3
69405;BME280;57084;52.046;5.632;2023-01-05T05:00:00;101610;;;11.6;73.3
69405;BME280;57084;52.046;5.632;2023-01-05T05:01:00;101620;;;11.6;73.3
69405;BME280;57084;52.046;5.632;2023-01-05T05:02:00;101620;;;11.6;73.3
69405;BME280;57084;52.046;5.632;2023-01-05T05:03:00;101620;;;11.6;73.3
69405;BME280;57084;52.046;5.632;2023-01-05T05:04:00;101620;;;11.6;73.3
69405;BME280;57084;52.046;5.632;2023-01-05T05:05:00;101610;;;11.6;73.3
69405;BME280;57084;52.046;5.632;2023-01-05T05:06:00;101610;;;11.6;73.3
69405;BME280;57084;52.046;5.632;2023-01-05T05:07:00;101620;;;11.6;73.3
69405;BME280;57084;52.046;5.632;2023-01-05T05:08:00;101620;;;11.6;73.3
69405;BME280;57084;52.046;5.632;2023-01-05T05:09:00;101630;;;11.6;73.3
69405;BME280;57084;52.046;5.632;2023-01-05T05:10:00;101630;;;11.6;73.3
69405;BME280;57084;52.046;5.632;2023-01-05T05:11:00;101620;;;11.6;73.3
69405;BME280;57084;52.046;5.632;2023-01-05T05:12:00;101620;;;11.6;73.3
69405;BME280;57084;52.046;5.632;2023-01-05T05:13:00;101620;;;11.6;73.3
69405;BME280;57084;52.046;5.632;2023-01-05T05:14:00;101620;;;11.6;73.3
69405;BME280;57084;52.046;5.632;2023-01-05T05:15:00;101620;;;11.6;73.3
69405;BME280;57084;52.046;5.632;2023-01-05T05:16:00;101620;;;11.6;73.3
69405;BME280;57084;52.046;5.632;2023-01-05T05:17:00;101620;;;11.6;73.3
69405;BME280;57084;52.046;5.632;2023-01-05T05:18:00;101620;;;11.6;73.3
69405;BME280;57084;52.046;5.632;2023-01-05T05:19:00;101620;;;11.6;73.3
69405;BME280;57084;52.046;5.632;2023-01-05T05:20:00;101620;;;11.6;73.3
69405;BME280;57084;52.046;5.632;2023-01-05T05:21:00;101620;;;11.6;73.3
69405;BME280;57084;52.046;5.632;2023-01-05T05:22:00;101620;;;11.6;73.3
69405;BME280;57084;52.046;5.632;2023-01-05T05:23:00;101630;;;11.6;73.3
69405;BME280;57084;52.046;5.632;2023-01-05T05:24:00;101630;;;11.6;73.3
69405;BME280;57084;52.046;5.632;2023-01-05T05:25:00;101640;;;11.6;73.3
69405;BME280;57084;52.046;5.632;2023-01-05T05:26:00;101640;;;11.6;73.3
69405;BME280;57084;52.046;5.632;2023-01-05T05:27:00;101630;;;11.6;73.3
69405;BME280;57084;52.046;5.632;2023-01-05T05:28:00;101630;;;11.6;73.3
69405;BME280;57084;52.046;5.632;2023-01-05T05:29:00;101640;;;11.6;73.4
69405;BME280;57084;52.046;5.632;2023-01-05T05:30:00;101640;;;11.6;73.4
69405;BME280;57084;52.046;5.632;2023-01-05T05:31:00;101640;;;11.6;73.4
69405;BME280;57084;52.046;5.632;2023-01-05T05:32:00;101640;;;11.6;73.4
69405;BME280;57084;52.046;5.632;2023-01-05T05:33:00;101640;;;11.6;73.3
69405;BME280;57084;52.046;5.632;2023-01-05T05:34:00;101640;;;11.6;73.3
69405;BME280;57084;52.046;5.632;2023-01-05T05:35:00;101640;;;11.6;73.3
69405;BME280;57084;52.046;5.632;2023-01-05T05:36:00;101640;;;11.6;73.3